Time;durP1;ratioP1;P1;durP2;ratioP2;P2;SDS_P1;SDS_P2;PMS_P1;PMS_P2;Temp;Humidity;BMP_temperature;BMP_pressure;BME280_temperature;BME280_humidity;BME280_pressure;Samples;Min_cycle;Max_cycle;Signal;HPM_P1;HPM_P2
2024/01/22 00:00:15;;;;;;;0.30;0.30;;;;;;;7.39;100.00;100771.41;5095774;28;20019;-56
2024/01/22 00:02:41;;;;;;;0.30;0.30;;;;;;;7.41;100.00;100751.81;5095706;28;20462;-56
2024/01/22 00:05:08;;;;;;;0.30;0.30;;;;;;;7.43;100.00;100742.50;5095310;28;20020;-56
2024/01/22 00:07:33;;;;;;;0.30;0.30;;;;;;;7.39;100.00;100745.78;5095121;28;20038;-56
2024/01/22 00:09:58;;;;;;;0.20;0.20;;;;;;;7.39;100.00;100748.34;5095565;28;20028;-56
2024/01/22 00:12:23;;;;;;;0.20;0.20;;;;;;;7.37;100.00;100732.00;5094493;28;20464;-56
2024/01/22 00:14:49;;;;;;;0.30;0.30;;;;;;;7.44;100.00;100746.84;5095610;28;20055;-56
2024/01/22 00:17:14;;;;;;;0.30;0.30;;;;;;;7.43;100.00;100732.25;5095321;28;20020;-56
2024/01/22 00:19:39;;;;;;;0.20;0.20;;;;;;;7.41;100.00;100726.19;5094574;28;20031;-56
2024/01/22 00:22:05;;;;;;;0.30;0.30;;;;;;;7.44;100.00;100741.72;5095214;28;20024;-56
2024/01/22 00:24:30;;;;;;;0.30;0.30;;;;;;;7.40;100.00;100742.41;5095004;28;20032;-56
2024/01/22 00:26:56;;;;;;;0.30;0.30;;;;;;;7.43;100.00;100726.25;5094666;28;20107;-56
2024/01/22 00:29:21;;;;;;;0.40;0.40;;;;;;;7.44;100.00;100723.75;5095009;28;20020;-56
2024/01/22 00:31:46;;;;;;;0.30;0.30;;;;;;;7.45;100.00;100712.69;5095050;28;20051;-56
2024/01/22 00:34:12;;;;;;;0.30;0.30;;;;;;;7.50;100.00;100695.81;5094487;28;20460;-56
2024/01/22 00:36:37;;;;;;;0.30;0.30;;;;;;;7.52;100.00;100688.16;5095075;28;20070;-56
2024/01/22 00:39:02;;;;;;;0.30;0.30;;;;;;;7.51;100.00;100687.25;5095033;28;20039;-56
2024/01/22 00:41:27;;;;;;;0.40;0.40;;;;;;;7.55;100.00;100688.28;5094305;28;20030;-56
2024/01/22 00:43:53;;;;;;;0.40;0.40;;;;;;;7.57;100.00;100661.00;5094860;28;20044;-56
2024/01/22 00:46:18;;;;;;;0.30;0.30;;;;;;;7.62;100.00;100653.47;5094590;28;20035;-56
2024/01/22 00:48:43;;;;;;;0.40;0.40;;;;;;;7.66;100.00;100657.94;5094512;28;20040;-56
2024/01/22 00:51:10;;;;;;;0.28;0.28;;;;;;;7.71;100.00;100664.09;5094990;28;20081;-56
2024/01/22 00:53:35;;;;;;;0.30;0.30;;;;;;;7.74;100.00;100665.06;5094671;28;20031;-56
2024/01/22 00:56:01;;;;;;;0.30;0.30;;;;;;;7.81;100.00;100661.06;5094512;28;20020;-56
2024/01/22 00:58:26;;;;;;;0.30;0.30;;;;;;;7.85;100.00;100646.66;5094541;28;20066;-56
2024/01/22 01:00:51;;;;;;;0.30;0.30;;;;;;;7.89;100.00;100654.53;5094989;28;20032;-56
2024/01/22 01:03:16;;;;;;;0.30;0.30;;;;;;;7.89;100.00;100643.41;5093853;28;20473;-56
2024/01/22 01:05:42;;;;;;;0.20;0.20;;;;;;;7.94;100.00;100644.44;5094626;28;20036;-56
2024/01/22 01:08:07;;;;;;;0.30;0.30;;;;;;;7.96;100.00;100629.97;5094346;28;20456;-56
2024/01/22 01:10:32;;;;;;;0.30;0.30;;;;;;;8.00;100.00;100643.78;5093553;28;20024;-56
2024/01/22 01:12:57;;;;;;;0.30;0.30;;;;;;;8.02;100.00;100624.19;5094587;28;20078;-56
2024/01/22 01:15:24;;;;;;;0.30;0.30;;;;;;;8.12;100.00;100633.09;5093731;28;20543;-56
2024/01/22 01:17:49;;;;;;;0.30;0.30;;;;;;;8.10;100.00;100638.16;5094365;28;20028;-56
2024/01/22 01:20:14;;;;;;;0.32;0.32;;;;;;;8.10;100.00;100637.31;5094178;28;20089;-56
2024/01/22 01:22:40;;;;;;;0.30;0.30;;;;;;;8.11;100.00;100634.78;5093892;28;20115;-56
2024/01/22 01:25:05;;;;;;;0.40;0.40;;;;;;;8.11;100.00;100642.50;5094184;28;20483;-56
2024/01/22 01:27:30;;;;;;;0.30;0.30;;;;;;;8.10;100.00;100620.19;5094080;28;20028;-56
2024/01/22 01:29:56;;;;;;;0.40;0.40;;;;;;;8.09;100.00;100610.75;5094080;28;20062;-56
2024/01/22 01:32:21;;;;;;;0.30;0.30;;;;;;;8.17;100.00;100640.16;5093816;28;20028;-56
2024/01/22 01:34:46;;;;;;;0.30;0.30;;;;;;;8.19;100.00;100607.69;5094352;28;20020;-56
2024/01/22 01:37:12;;;;;;;0.30;0.30;;;;;;;8.24;100.00;100616.44;5093341;28;20438;-56
2024/01/22 01:39:37;;;;;;;0.30;0.30;;;;;;;8.20;100.00;100603.44;5093956;28;20119;-56
2024/01/22 01:42:02;;;;;;;0.30;0.30;;;;;;;8.26;100.00;100602.78;5094027;28;20051;-56
2024/01/22 01:44:44;;;;;;;0.30;0.30;;;;;;;8.32;100.00;100603.84;5093030;28;20442;-56
2024/01/22 01:47:10;;;;;;;0.30;0.30;;;;;;;8.33;100.00;100603.03;5093633;28;20028;-56
2024/01/22 01:49:35;;;;;;;0.30;0.30;;;;;;;8.36;100.00;100612.53;5094094;28;20368;-56
2024/01/22 01:52:00;;;;;;;0.30;0.30;;;;;;;8.38;100.00;100580.09;5093399;28;20024;-56
2024/01/22 01:54:27;;;;;;;0.30;0.30;;;;;;;8.41;100.00;100563.09;5093149;28;20020;-56
2024/01/22 01:56:53;;;;;;;0.30;0.30;;;;;;;8.39;100.00;100584.38;5093809;28;20035;-56
2024/01/22 01:59:19;;;;;;;0.30;0.30;;;;;;;8.36;100.00;100564.63;5093100;28;20028;-56
2024/01/22 02:01:44;;;;;;;0.20;0.20;;;;;;;8.38;100.00;100574.97;5093451;28;20095;-56
2024/01/22 02:04:10;;;;;;;0.30;0.30;;;;;;;8.42;100.00;100579.38;5093452;28;20117;-56
2024/01/22 02:06:35;;;;;;;0.30;0.30;;;;;;;8.45;100.00;100568.34;5093024;28;20028;-55
2024/01/22 02:09:00;;;;;;;0.30;0.30;;;;;;;8.44;100.00;100577.72;5093355;28;20062;-56
2024/01/22 02:11:25;;;;;;;0.30;0.30;;;;;;;8.41;100.00;100562.22;5092819;28;20024;-56
2024/01/22 02:13:52;;;;;;;0.22;0.22;;;;;;;8.42;100.00;100558.84;5093435;28;20103;-56
2024/01/22 02:16:18;;;;;;;0.20;0.20;;;;;;;8.37;100.00;100550.97;5093345;28;20097;-56
2024/01/22 02:18:44;;;;;;;0.30;0.30;;;;;;;8.39;100.00;100515.94;5092773;28;20062;-56
2024/01/22 02:21:09;;;;;;;0.30;0.30;;;;;;;8.44;100.00;100517.78;5092342;28;20031;-56
2024/01/22 02:23:34;;;;;;;0.30;0.30;;;;;;;8.45;100.00;100533.25;5093469;28;20020;-56
2024/01/22 02:26:00;;;;;;;0.30;0.30;;;;;;;8.44;100.00;100520.34;5092981;28;20020;-56
2024/01/22 02:28:28;;;;;;;0.30;0.30;;;;;;;8.49;100.00;100509.44;5092972;28;20505;-56
2024/01/22 02:30:53;;;;;;;0.30;0.30;;;;;;;8.53;100.00;100493.31;5093405;28;20030;-56
2024/01/22 02:33:18;;;;;;;0.28;0.28;;;;;;;8.55;100.00;100489.09;5092358;28;20031;-56
2024/01/22 02:35:43;;;;;;;0.20;0.20;;;;;;;8.56;100.00;100489.97;5093018;28;20158;-56
2024/01/22 02:38:09;;;;;;;0.20;0.20;;;;;;;8.54;100.00;100489.91;5093303;28;20024;-56
2024/01/22 02:40:34;;;;;;;0.40;0.40;;;;;;;8.53;100.00;100479.59;5092376;28;20484;-56
2024/01/22 02:42:59;;;;;;;0.30;0.30;;;;;;;8.49;100.00;100488.88;5092711;28;20052;-56
2024/01/22 02:45:25;;;;;;;0.30;0.30;;;;;;;8.37;100.00;100442.25;5092816;28;20051;-56
2024/01/22 02:47:50;;;;;;;0.30;0.30;;;;;;;8.33;100.00;100466.09;5092443;28;20024;-56
2024/01/22 02:50:15;;;;;;;0.30;0.30;;;;;;;8.28;100.00;100447.09;5092381;28;20019;-56
2024/01/22 02:52:40;;;;;;;0.30;0.30;;;;;;;8.27;100.00;100460.75;5092650;28;20024;-56
2024/01/22 02:55:06;;;;;;;0.30;0.30;;;;;;;8.27;100.00;100447.91;5092480;28;20647;-56
2024/01/22 02:57:31;;;;;;;0.30;0.30;;;;;;;8.28;100.00;100444.53;5092419;28;20477;-56
2024/01/22 02:59:57;;;;;;;0.30;0.30;;;;;;;8.24;100.00;100429.00;5092946;28;20024;-56
2024/01/22 03:02:22;;;;;;;0.20;0.20;;;;;;;8.28;100.00;100426.56;5091676;28;20028;-56
2024/01/22 03:04:48;;;;;;;0.30;0.30;;;;;;;8.24;100.00;100416.16;5092393;28;20019;-56
2024/01/22 03:07:13;;;;;;;0.32;0.32;;;;;;;8.22;100.00;100415.28;5092200;28;20016;-56
2024/01/22 03:09:38;;;;;;;0.20;0.20;;;;;;;8.18;100.00;100408.25;5091971;28;20093;-56
2024/01/22 03:12:04;;;;;;;0.20;0.20;;;;;;;8.14;100.00;100410.72;5092365;28;20020;-57
2024/01/22 03:14:29;;;;;;;0.30;0.30;;;;;;;8.16;100.00;100401.34;5092490;28;20090;-56
2024/01/22 03:16:55;;;;;;;0.20;0.20;;;;;;;8.16;100.00;100389.41;5092177;28;20044;-56
2024/01/22 03:19:20;;;;;;;0.30;0.30;;;;;;;8.16;100.00;100381.69;5092321;28;20036;-56
2024/01/22 03:21:45;;;;;;;0.30;0.30;;;;;;;8.18;100.00;100369.75;5092068;28;20024;-56
2024/01/22 03:24:10;;;;;;;0.30;0.30;;;;;;;8.21;100.00;100382.72;5092024;28;20411;-56
2024/01/22 03:26:36;;;;;;;0.30;0.30;;;;;;;8.26;100.00;100366.56;5092726;28;20051;-56
2024/01/22 03:29:01;;;;;;;0.30;0.30;;;;;;;8.28;100.00;100388.03;5092192;28;20020;-56
2024/01/22 03:31:29;;;;;;;0.30;0.30;;;;;;;8.23;100.00;100377.63;5091838;28;20047;-56
2024/01/22 03:33:55;;;;;;;;;;;;;;;8.33;100.00;100368.53;5095715;28;20054;-56
2024/01/22 03:36:21;;;;;;;0.30;0.30;;;;;;;8.31;100.00;100375.28;5095659;28;19916;-56
2024/01/22 03:38:46;;;;;;;0.30;0.30;;;;;;;8.30;100.00;100353.91;5096160;28;20483;-56
2024/01/22 03:41:12;;;;;;;0.30;0.30;;;;;;;8.35;100.00;100387.41;5096209;28;20020;-56
2024/01/22 03:43:38;;;;;;;0.30;0.30;;;;;;;8.35;100.00;100383.16;5095436;28;20040;-56
2024/01/22 03:46:03;;;;;;;0.30;0.30;;;;;;;8.36;100.00;100355.75;5096215;28;20020;-56
2024/01/22 03:48:28;;;;;;;0.30;0.30;;;;;;;8.39;100.00;100355.84;5095956;28;20024;-56
2024/01/22 03:50:54;;;;;;;0.30;0.30;;;;;;;8.43;100.00;100359.38;5095578;28;20395;-56
2024/01/22 03:53:20;;;;;;;0.40;0.40;;;;;;;8.45;100.00;100358.59;5095388;28;20032;-56
2024/01/22 03:55:45;;;;;;;0.20;0.20;;;;;;;8.51;100.00;100361.41;5095987;28;20474;-56
2024/01/22 03:58:11;;;;;;;0.28;0.28;;;;;;;8.50;100.00;100354.50;5095325;28;20053;-56
2024/01/22 04:00:37;;;;;;;0.30;0.30;;;;;;;8.53;100.00;100364.91;5095785;28;20463;-56
2024/01/22 04:03:03;;;;;;;0.30;0.30;;;;;;;8.60;100.00;100367.63;5095524;28;20068;-56
2024/01/22 04:05:28;;;;;;;0.30;0.30;;;;;;;8.63;100.00;100362.59;5094619;28;20036;-56
2024/01/22 04:07:54;;;;;;;0.30;0.30;;;;;;;8.73;100.00;100374.91;5095505;28;20491;-56
2024/01/22 04:10:19;;;;;;;0.30;0.30;;;;;;;8.73;100.00;100331.22;5095515;28;20024;-56
2024/01/22 04:12:44;;;;;;;0.30;0.30;;;;;;;8.71;100.00;100331.19;5095019;28;20032;-56
2024/01/22 04:15:10;;;;;;;0.30;0.30;;;;;;;8.71;100.00;100350.84;5095224;28;20172;-56
2024/01/22 04:17:35;;;;;;;0.30;0.30;;;;;;;8.70;100.00;100338.81;5095462;28;20096;-56
2024/01/22 04:20:01;;;;;;;0.30;0.30;;;;;;;8.73;100.00;100341.50;5094789;28;20057;-56
2024/01/22 04:22:26;;;;;;;0.30;0.30;;;;;;;8.73;100.00;100324.38;5095182;28;20453;-56
2024/01/22 04:24:51;;;;;;;0.30;0.30;;;;;;;8.75;100.00;100329.53;5095241;28;20020;-56
2024/01/22 04:27:16;;;;;;;0.30;0.30;;;;;;;8.76;100.00;100331.28;5094933;28;20027;-56
2024/01/22 04:29:42;;;;;;;0.30;0.30;;;;;;;8.76;100.00;100325.28;5095663;28;20101;-56
2024/01/22 04:32:07;;;;;;;0.30;0.30;;;;;;;8.78;100.00;100339.03;5094418;28;20024;-56
2024/01/22 04:34:32;;;;;;;0.30;0.30;;;;;;;8.82;100.00;100321.19;5094950;28;20488;-56
2024/01/22 04:36:58;;;;;;;0.30;0.30;;;;;;;8.84;100.00;100305.81;5095309;28;20032;-56
2024/01/22 04:39:25;;;;;;;0.30;0.30;;;;;;;8.90;100.00;100314.56;5094654;28;20337;-55
2024/01/22 04:41:51;;;;;;;0.22;0.22;;;;;;;8.92;100.00;100313.72;5095119;28;20035;-56
2024/01/22 04:44:16;;;;;;;0.20;0.20;;;;;;;9.02;100.00;100320.88;5093795;28;20040;-56
2024/01/22 04:46:41;;;;;;;0.30;0.30;;;;;;;9.05;100.00;100310.66;5094918;28;20012;-56
2024/01/22 04:49:09;;;;;;;0.30;0.30;;;;;;;9.16;100.00;100298.97;5095194;28;20131;-56
2024/01/22 04:51:34;;;;;;;0.30;0.30;;;;;;;9.22;100.00;100324.84;5094951;28;20024;-56
2024/01/22 04:54:00;;;;;;;0.28;0.28;;;;;;;9.25;100.00;100328.34;5094717;28;20020;-56
2024/01/22 04:56:25;;;;;;;0.30;0.30;;;;;;;9.29;100.00;100327.59;5094586;28;20032;-56
2024/01/22 04:58:50;;;;;;;0.30;0.30;;;;;;;9.32;100.00;100304.50;5094849;28;20028;-56
2024/01/22 05:01:15;;;;;;;0.20;0.20;;;;;;;9.36;100.00;100317.50;5093753;28;20081;-56
2024/01/22 05:03:41;;;;;;;0.20;0.20;;;;;;;9.34;100.00;100315.72;5094480;28;20043;-56
2024/01/22 05:06:06;;;;;;;0.25;0.25;;;;;;;9.36;100.00;100314.94;5094343;28;20024;-56
2024/01/22 05:08:32;;;;;;;0.20;0.20;;;;;;;9.42;100.00;100296.19;5093858;28;20036;-55
2024/01/22 05:10:57;;;;;;;0.25;0.25;;;;;;;9.53;100.00;100304.22;5094524;28;20020;-56
2024/01/22 05:13:22;;;;;;;0.20;0.20;;;;;;;9.56;100.00;100299.97;5094449;28;20036;-56
2024/01/22 05:15:48;;;;;;;0.30;0.30;;;;;;;9.55;100.00;100317.97;5094065;28;20073;-55
2024/01/22 05:18:13;;;;;;;0.30;0.30;;;;;;;9.51;100.00;100291.28;5093968;28;20031;-57
2024/01/22 05:20:39;;;;;;;0.22;0.22;;;;;;;9.50;100.00;100289.56;5094135;28;20098;-56
2024/01/22 05:23:05;;;;;;;0.30;0.30;;;;;;;9.49;100.00;100289.50;5093556;28;20031;-56
2024/01/22 05:25:30;;;;;;;0.30;0.30;;;;;;;9.52;100.00;100282.75;5094177;28;20049;-56
2024/01/22 05:27:55;;;;;;;0.20;0.20;;;;;;;9.56;100.00;100279.41;5094374;28;20430;-57
2024/01/22 05:30:20;;;;;;;0.20;0.20;;;;;;;9.54;100.00;100268.22;5093505;28;20031;-56
2024/01/22 05:32:46;;;;;;;0.30;0.30;;;;;;;9.61;100.00;100287.25;5094193;28;20430;-56
2024/01/22 05:35:13;;;;;;;0.20;0.20;;;;;;;9.67;100.00;100286.50;5093498;28;20028;-56
2024/01/22 05:37:38;;;;;;;0.20;0.20;;;;;;;9.67;100.00;100313.13;5094061;28;20052;-56
2024/01/22 05:40:05;;;;;;;0.30;0.30;;;;;;;9.75;100.00;100284.13;5094351;28;20071;-56
2024/01/22 05:42:31;;;;;;;0.20;0.20;;;;;;;9.82;100.00;100298.91;5093401;28;20141;-56
2024/01/22 05:44:56;;;;;;;0.20;0.20;;;;;;;9.83;100.00;100300.63;5093849;28;20127;-56
2024/01/22 05:47:21;;;;;;;0.22;0.22;;;;;;;9.83;100.00;100304.06;5093801;28;20040;-56
2024/01/22 05:49:47;;;;;;;0.20;0.20;;;;;;;9.81;100.00;100300.59;5093366;28;20097;-56
2024/01/22 05:52:12;;;;;;;0.20;0.20;;;;;;;9.77;100.00;100313.34;5093220;28;20036;-56
2024/01/22 05:54:37;;;;;;;0.20;0.20;;;;;;;9.78;100.00;100315.97;5094050;28;20411;-56
2024/01/22 05:57:03;;;;;;;0.22;0.22;;;;;;;9.77;100.00;100323.66;5093050;28;20051;-56
2024/01/22 05:59:28;;;;;;;0.30;0.30;;;;;;;9.72;100.00;100320.94;5093194;28;20028;-56
2024/01/22 06:01:56;;;;;;;0.20;0.20;;;;;;;9.68;100.00;100327.75;5093789;28;20507;-56
2024/01/22 06:04:22;;;;;;;0.20;0.20;;;;;;;9.63;100.00;100318.16;5092807;28;20031;-56
2024/01/22 06:06:48;;;;;;;0.30;0.30;;;;;;;9.58;100.00;100322.31;5093718;28;20066;-56
2024/01/22 06:09:14;;;;;;;0.30;0.30;;;;;;;9.55;100.00;100323.09;5093270;28;20032;-56
2024/01/22 06:11:39;;;;;;;0.20;0.20;;;;;;;9.56;100.00;100322.28;5093112;28;20487;-56
2024/01/22 06:14:04;;;;;;;0.30;0.30;;;;;;;9.52;100.00;100308.47;5093293;28;20077;-56
2024/01/22 06:16:30;;;;;;;0.30;0.30;;;;;;;9.54;100.00;100319.69;5093399;28;20027;-56
2024/01/22 06:18:55;;;;;;;0.30;0.30;;;;;;;9.51;100.00;100303.28;5092696;28;20030;-56
2024/01/22 06:21:20;;;;;;;0.20;0.20;;;;;;;9.49;100.00;100307.50;5092994;28;20016;-56
2024/01/22 06:23:46;;;;;;;0.30;0.30;;;;;;;9.42;100.00;100305.63;5093504;28;20035;-56
2024/01/22 06:26:12;;;;;;;0.30;0.30;;;;;;;9.37;100.00;100310.66;5092319;28;20025;-57
2024/01/22 06:28:38;;;;;;;0.30;0.30;;;;;;;9.36;100.00;100306.31;5093387;28;20433;-56
2024/01/22 06:31:03;;;;;;;0.20;0.20;;;;;;;9.35;100.00;100309.75;5092706;28;20024;-56
2024/01/22 06:33:28;;;;;;;0.30;0.30;;;;;;;9.36;100.00;100314.03;5091884;28;20812;-56
2024/01/22 06:35:54;;;;;;;0.20;0.20;;;;;;;9.33;100.00;100331.97;5092985;28;20024;-56
2024/01/22 06:38:20;;;;;;;0.30;0.30;;;;;;;9.35;100.00;100308.03;5093116;28;20502;-56
2024/01/22 06:40:46;;;;;;;0.30;0.30;;;;;;;9.35;100.00;100313.19;5092494;28;20028;-56
2024/01/22 06:43:11;;;;;;;0.25;0.25;;;;;;;9.37;100.00;100320.94;5092764;28;20118;-57
2024/01/22 06:45:37;;;;;;;0.30;0.30;;;;;;;9.35;100.00;100320.91;5092462;28;20166;-57
2024/01/22 06:48:03;;;;;;;0.30;0.30;;;;;;;9.35;100.00;100333.75;5092608;28;20039;-57
2024/01/22 06:50:28;;;;;;;0.20;0.20;;;;;;;9.36;100.00;100326.91;5092406;28;20031;-56
2024/01/22 06:52:54;;;;;;;0.30;0.30;;;;;;;9.39;100.00;100337.28;5092220;28;20032;-56
2024/01/22 06:55:19;;;;;;;0.30;0.30;;;;;;;9.44;100.00;100334.81;5092443;28;20412;-56
2024/01/22 06:57:45;;;;;;;0.20;0.20;;;;;;;9.59;100.00;100352.34;5092868;28;20020;-56
2024/01/22 07:00:11;;;;;;;0.28;0.28;;;;;;;9.62;100.00;100355.00;5091844;28;20031;-56
2024/01/22 07:02:38;;;;;;;0.30;0.30;;;;;;;9.60;100.00;100362.69;5092481;28;20028;-56
2024/01/22 07:05:04;;;;;;;0.30;0.30;;;;;;;9.61;100.00;100350.72;5092837;28;20027;-56
2024/01/22 07:07:30;;;;;;;0.30;0.30;;;;;;;9.54;100.00;100350.53;5091279;28;20032;-56
2024/01/22 07:09:56;;;;;;;0.20;0.20;;;;;;;9.56;100.00;100343.72;5092635;28;20085;-56
2024/01/22 07:12:22;;;;;;;0.30;0.30;;;;;;;9.61;100.00;100364.44;5092323;28;20103;-56
2024/01/22 07:14:48;;;;;;;0.20;0.20;;;;;;;9.62;100.00;100363.59;5092147;28;20062;-56
2024/01/22 07:17:19;;;;;;;0.20;0.20;;;;;;;9.62;100.00;100365.28;5092090;28;20024;-56
2024/01/22 07:19:44;;;;;;;0.30;0.30;;;;;;;9.60;100.00;100361.81;5092540;28;20356;-56
2024/01/22 07:22:09;;;;;;;0.30;0.30;;;;;;;9.65;100.00;100347.38;5091575;28;20444;-56
2024/01/22 07:24:36;;;;;;;0.30;0.30;;;;;;;9.62;100.00;100355.00;5092306;28;20036;-56
2024/01/22 07:27:02;;;;;;;0.28;0.28;;;;;;;9.70;100.00;100358.66;5092332;28;20424;-56
2024/01/22 07:29:27;;;;;;;0.20;0.20;;;;;;;9.67;100.00;100351.72;5091358;28;20479;-56
2024/01/22 07:31:53;;;;;;;0.30;0.30;;;;;;;9.69;100.00;100359.47;5092388;28;20020;-57
2024/01/22 07:34:19;;;;;;;0.30;0.30;;;;;;;9.66;100.00;100341.41;5091892;28;20076;-56
2024/01/22 07:36:44;;;;;;;0.30;0.30;;;;;;;9.67;100.00;100354.31;5091589;28;20057;-56
2024/01/22 07:39:11;;;;;;;0.20;0.20;;;;;;;9.66;100.00;100362.00;5091600;28;20177;-56
2024/01/22 07:41:38;;;;;;;0.30;0.30;;;;;;;9.64;100.00;100368.78;5092429;28;20065;-56
2024/01/22 07:44:04;;;;;;;0.22;0.22;;;;;;;9.62;100.00;100360.16;5091377;28;20044;-57
2024/01/22 07:46:30;;;;;;;0.30;0.30;;;;;;;9.61;100.00;100368.72;5091847;28;20020;-56
2024/01/22 07:48:55;;;;;;;0.25;0.25;;;;;;;9.59;100.00;100360.94;5091791;28;20064;-56
2024/01/22 07:51:21;;;;;;;0.30;0.30;;;;;;;9.60;100.00;100372.97;5091800;28;20081;-56
2024/01/22 07:53:46;;;;;;;0.20;0.20;;;;;;;9.60;100.00;100364.41;5092159;28;20105;-56
2024/01/22 07:56:11;;;;;;;0.28;0.28;;;;;;;9.56;100.00;100384.03;5091603;28;20028;-56
2024/01/22 07:58:40;;;;;;;0.20;0.20;;;;;;;9.58;100.00;100381.50;5091804;28;20046;-57
2024/01/22 08:01:07;;;;;;;0.20;0.20;;;;;;;9.59;100.00;100383.22;5091896;28;20117;-57
2024/01/22 08:03:32;;;;;;;0.25;0.25;;;;;;;9.54;100.00;100368.56;5091601;28;20016;-57
2024/01/22 08:05:58;;;;;;;0.30;0.30;;;;;;;9.51;100.00;100381.31;5091824;28;20437;-57
2024/01/22 08:08:25;;;;;;;0.30;0.30;;;;;;;9.53;100.00;100377.09;5091979;28;20022;-57
2024/01/22 08:10:50;;;;;;;0.20;0.20;;;;;;;9.53;100.00;100386.53;5091462;28;20021;-57
2024/01/22 08:13:15;;;;;;;0.30;0.30;;;;;;;9.48;100.00;100381.25;5091311;28;20039;-57
2024/01/22 08:15:41;;;;;;;0.30;0.30;;;;;;;9.45;100.00;100385.44;5091947;28;20040;-57
2024/01/22 08:18:06;;;;;;;0.20;0.20;;;;;;;9.46;100.00;100400.91;5091625;28;20027;-57
2024/01/22 08:20:32;;;;;;;0.20;0.20;;;;;;;9.44;100.00;100407.72;5093750;28;20027;-57
2024/01/22 08:22:57;;;;;;;0.30;0.30;;;;;;;9.42;100.00;100396.50;5095853;28;20031;-57
2024/01/22 08:25:27;;;;;;;0.30;0.30;;;;;;;9.40;100.00;100411.06;5094532;28;20042;-57
2024/01/22 08:27:56;;;;;;;0.20;0.20;;;;;;;9.42;100.00;100393.94;5095581;28;20020;-57
2024/01/22 08:30:22;;;;;;;0.30;0.30;;;;;;;9.42;100.00;100391.38;5095053;28;20040;-57
2024/01/22 08:32:48;;;;;;;0.20;0.20;;;;;;;9.41;100.00;100405.06;5094400;28;20361;-57
2024/01/22 08:35:15;;;;;;;0.20;0.20;;;;;;;9.38;100.00;100403.28;5095008;28;20464;-57
2024/01/22 08:37:40;;;;;;;0.30;0.30;;;;;;;9.39;100.00;100410.16;5095311;28;20471;-57
2024/01/22 08:40:06;;;;;;;0.30;0.30;;;;;;;9.37;100.00;100422.13;5094589;28;20104;-57
2024/01/22 08:42:33;;;;;;;0.30;0.30;;;;;;;9.33;100.00;100419.41;5094849;28;20031;-57
2024/01/22 08:44:58;;;;;;;0.30;0.30;;;;;;;9.30;100.00;100415.06;5094931;28;20040;-57
2024/01/22 08:47:23;;;;;;;0.30;0.30;;;;;;;9.27;100.00;100416.66;5093726;28;20382;-57
2024/01/22 08:49:48;;;;;;;0.30;0.30;;;;;;;9.23;100.00;100434.59;5095204;28;20478;-57
2024/01/22 08:52:14;;;;;;;0.30;0.30;;;;;;;9.21;100.00;100441.38;5094272;28;20443;-57
2024/01/22 08:54:39;;;;;;;0.32;0.32;;;;;;;9.21;100.00;100420.81;5094896;28;20027;-57
2024/01/22 08:57:04;;;;;;;0.30;0.30;;;;;;;9.21;100.00;100425.09;5095026;28;20020;-57
2024/01/22 08:59:30;;;;;;;0.30;0.30;;;;;;;9.21;100.00;100438.81;5094210;28;20455;-57
2024/01/22 09:01:55;;;;;;;0.30;0.30;;;;;;;9.19;100.00;100419.91;5094856;28;20083;-57
2024/01/22 09:04:20;;;;;;;0.30;0.30;;;;;;;9.19;100.00;100416.44;5094476;28;20021;-57
2024/01/22 09:06:46;;;;;;;0.30;0.30;;;;;;;9.17;100.00;100408.69;5094449;28;20028;-57
2024/01/22 09:09:11;;;;;;;0.20;0.20;;;;;;;9.17;100.00;100413.00;5094361;28;20028;-57
2024/01/22 09:11:36;;;;;;;0.30;0.30;;;;;;;9.15;100.00;100410.34;5094362;28;20028;-56
2024/01/22 09:14:02;;;;;;;0.30;0.30;;;;;;;9.14;100.00;100412.88;5094064;28;20464;-57
2024/01/22 09:16:27;;;;;;;0.30;0.30;;;;;;;9.11;100.00;100408.53;5094244;28;20442;-57
2024/01/22 09:18:53;;;;;;;0.20;0.20;;;;;;;9.08;100.00;100405.88;5094801;28;20024;-56
2024/01/22 09:21:18;;;;;;;0.30;0.30;;;;;;;9.06;100.00;100410.09;5093890;28;20064;-57
2024/01/22 09:23:43;;;;;;;0.30;0.30;;;;;;;9.05;100.00;100405.78;5094080;28;20032;-57
2024/01/22 09:26:09;;;;;;;0.30;0.30;;;;;;;9.02;100.00;100409.13;5094544;28;20472;-57
2024/01/22 09:28:34;;;;;;;0.22;0.22;;;;;;;9.02;100.00;100392.84;5093750;28;20066;-57
2024/01/22 09:31:00;;;;;;;0.22;0.22;;;;;;;9.02;100.00;100395.41;5093845;28;20020;-57
2024/01/22 09:33:26;;;;;;;0.30;0.30;;;;;;;9.03;100.00;100394.59;5094039;28;20046;-58
2024/01/22 09:35:51;;;;;;;0.30;0.30;;;;;;;9.06;100.00;100395.56;5093396;28;20103;-57
2024/01/22 09:38:17;;;;;;;0.20;0.20;;;;;;;9.07;100.00;100399.84;5093875;28;20044;-58
2024/01/22 09:40:43;;;;;;;0.30;0.30;;;;;;;9.11;100.00;100399.94;5093985;28;20456;-58
2024/01/22 09:43:09;;;;;;;0.20;0.20;;;;;;;9.11;100.00;100407.66;5093015;28;20070;-58
2024/01/22 09:45:35;;;;;;;0.30;0.30;;;;;;;9.12;100.00;100400.00;5094360;28;20055;-57
2024/01/22 09:48:00;;;;;;;0.20;0.20;;;;;;;9.11;100.00;100408.53;5094009;28;20107;-57
2024/01/22 09:50:27;;;;;;;0.30;0.30;;;;;;;9.10;100.00;100424.75;5092941;28;20414;-58
2024/01/22 09:52:54;;;;;;;0.30;0.30;;;;;;;9.10;100.00;100417.06;5093812;28;20031;-57
2024/01/22 09:55:22;;;;;;;0.30;0.30;;;;;;;9.08;100.00;100421.31;5093552;28;20047;-58
2024/01/22 09:57:50;;;;;;;0.30;0.30;;;;;;;9.14;100.00;100444.63;5093074;28;20016;-58
2024/01/22 10:00:18;;;;;;;0.30;0.30;;;;;;;9.15;100.00;100430.06;5093633;28;20050;-58
2024/01/22 10:02:43;;;;;;;0.25;0.25;;;;;;;9.17;100.00;100434.41;5093340;28;20028;-58
2024/01/22 10:05:09;;;;;;;0.20;0.20;;;;;;;9.18;100.00;100479.88;5093649;28;20384;-58
2024/01/22 10:07:34;;;;;;;0.20;0.20;;;;;;;9.16;100.00;100509.78;5093570;28;20076;-58
2024/01/22 10:09:59;;;;;;;0.20;0.20;;;;;;;9.06;100.00;100508.66;5093095;28;20062;-58
2024/01/22 10:12:25;;;;;;;0.30;0.30;;;;;;;8.80;100.00;100532.69;5092888;28;20028;-59
2024/01/22 10:14:51;;;;;;;0.30;0.30;;;;;;;8.60;100.00;100527.78;5093645;28;20027;-59
2024/01/22 10:17:18;;;;;;;0.30;0.30;;;;;;;8.40;100.00;100533.09;5092607;28;20506;-59
2024/01/22 10:19:45;;;;;;;0.30;0.30;;;;;;;8.21;100.00;100539.31;5093305;28;20048;-58
2024/01/22 10:22:11;;;;;;;0.30;0.30;;;;;;;8.01;100.00;100537.75;5093068;28;20093;-59
2024/01/22 10:24:39;;;;;;;0.30;0.30;;;;;;;7.84;100.00;100553.41;5092679;28;20254;-58
2024/01/22 10:27:15;;;;;;;0.30;0.30;;;;;;;7.74;100.00;100571.84;5093224;28;20493;-58
2024/01/22 10:29:43;;;;;;;0.30;0.30;;;;;;;7.62;100.00;100571.41;5093544;28;20024;-58
2024/01/22 10:32:09;;;;;;;0.20;0.20;;;;;;;7.55;100.00;100566.06;5092646;28;20032;-58
2024/01/22 10:34:53;;;;;;;0.30;0.30;;;;;;;7.51;100.00;100584.69;5093026;28;20027;-58
2024/01/22 10:37:19;;;;;;;0.30;0.30;;;;;;;7.46;100.00;100580.22;5092770;28;20063;-58
2024/01/22 10:39:48;;;;;;;0.30;0.30;;;;;;;7.44;100.00;100592.09;5092632;28;20394;-59
2024/01/22 10:42:15;;;;;;;0.30;0.30;;;;;;;7.41;100.00;100572.34;5092289;28;20042;-58
2024/01/22 10:44:45;;;;;;;0.30;0.30;;;;;;;7.41;100.00;100580.03;5092467;28;20040;-58
2024/01/22 10:47:14;;;;;;;0.30;0.30;;;;;;;7.40;100.00;100570.63;5092483;28;20371;-59
2024/01/22 10:49:43;;;;;;;0.30;0.30;;;;;;;7.40;100.00;100583.44;5093254;28;20017;-58
2024/01/22 10:52:08;;;;;;;0.30;0.30;;;;;;;7.42;100.00;100586.91;5092517;28;20048;-59
2024/01/22 10:54:35;;;;;;;0.20;0.20;;;;;;;7.45;100.00;100574.22;5092664;28;20066;-58
2024/01/22 10:57:03;;;;;;;0.30;0.30;;;;;;;7.51;100.00;100583.81;5093189;28;20470;-58
2024/01/22 10:59:33;;;;;;;0.30;0.30;;;;;;;7.53;100.00;100571.94;5091996;28;20040;-58
2024/01/22 11:01:59;;;;;;;0.32;0.32;;;;;;;7.57;100.00;100571.25;5092361;28;20073;-58
2024/01/22 11:04:33;;;;;;;0.40;0.40;;;;;;;7.60;100.00;100583.31;5092345;28;20020;-58
2024/01/22 11:07:01;;;;;;;0.30;0.30;;;;;;;7.65;100.00;100581.78;5092200;28;20111;-59
2024/01/22 11:09:31;;;;;;;0.30;0.30;;;;;;;7.68;100.00;100581.88;5092708;28;20024;-59
2024/01/22 11:12:11;;;;;;;0.30;0.30;;;;;;;7.71;100.00;100582.88;5092505;28;20487;-58
2024/01/22 11:14:38;;;;;;;0.30;0.30;;;;;;;7.77;100.00;100589.91;5091909;28;20456;-58
2024/01/22 11:17:06;;;;;;;0.30;0.30;;;;;;;7.83;100.00;100587.59;5092510;28;20024;-58